createdAt,value
2022-08-10T00:02:21.372Z,25.94
2022-08-10T00:04:50.810Z,25.85
2022-08-10T00:07:20.237Z,26.10
2022-08-10T00:09:50.274Z,26.00
2022-08-10T00:12:21.063Z,25.89
2022-08-10T00:14:53.072Z,26.07
2022-08-10T00:17:22.496Z,26.09
2022-08-10T00:20:03.907Z,26.51
2022-08-10T00:22:38.063Z,27.79
2022-08-10T00:25:22.455Z,27.72
2022-08-10T00:28:03.032Z,28.19
2022-08-10T00:30:35.897Z,28.52
2022-08-10T00:33:05.331Z,28.48
2022-08-10T00:35:36.388Z,28.26
2022-08-10T00:38:05.809Z,28.87
2022-08-10T00:40:37.807Z,29.15
2022-08-10T00:43:07.677Z,29.27
2022-08-10T00:45:39.743Z,29.61
2022-08-10T00:48:09.449Z,30.00
2022-08-10T00:50:38.917Z,29.97
2022-08-10T00:53:08.364Z,30.40
2022-08-10T00:56:35.034Z,30.44
2022-08-10T00:58:27.251Z,30.08
2022-08-10T01:00:59.334Z,30.29
2022-08-10T01:04:54.625Z,30.22
2022-08-10T01:06:21.056Z,30.55
2022-08-10T01:08:52.537Z,30.36
2022-08-10T01:12:37.657Z,30.13
2022-08-10T01:14:19.588Z,30.05
2022-08-10T01:16:53.244Z,29.75
2022-08-10T01:19:26.360Z,29.68
2022-08-10T01:22:07.249Z,29.91
2022-08-10T01:24:42.335Z,30.00
2022-08-10T01:27:29.918Z,29.61
2022-08-10T01:30:04.828Z,29.97
2022-08-10T01:32:39.989Z,30.12
2022-08-10T01:35:14.552Z,29.93
2022-08-10T01:37:51.974Z,29.84
2022-08-10T01:40:25.785Z,30.23
2022-08-10T01:42:55.733Z,30.45
2022-08-10T01:45:45.320Z,30.14
2022-08-10T01:48:29.709Z,30.45
2022-08-10T01:51:01.500Z,30.40
2022-08-10T01:53:40.171Z,31.01
2022-08-10T01:56:11.836Z,31.14
2022-08-10T01:58:41.377Z,31.17
2022-08-10T02:01:17.193Z,31.28
2022-08-10T02:04:04.523Z,31.30
2022-08-10T02:06:36.839Z,31.65
2022-08-10T02:09:07.319Z,32.34
2022-08-10T02:12:06.211Z,33.21
2022-08-10T02:14:33.921Z,33.76
2022-08-10T02:17:07.680Z,34.38
2022-08-10T02:19:38.182Z,34.15
2022-08-10T02:22:35.254Z,34.11
2022-08-10T02:24:57.260Z,33.62
2022-08-10T02:27:27.929Z,34.30
2022-08-10T02:29:57.441Z,34.31
2022-08-10T02:32:36.328Z,33.88
2022-08-10T02:35:13.183Z,34.43
2022-08-10T02:37:51.860Z,34.27
2022-08-10T02:42:18.825Z,34.38
2022-08-10T02:45:29.935Z,34.28
2022-08-10T02:46:08.056Z,34.46
2022-08-10T02:48:42.086Z,34.19
2022-08-10T02:51:14.165Z,34.48
2022-08-10T02:53:55.053Z,33.91
2022-08-10T02:56:29.172Z,33.79
2022-08-10T02:59:00.966Z,33.65
2022-08-10T03:01:34.107Z,33.91
2022-08-10T03:04:07.874Z,33.77
2022-08-10T03:06:39.893Z,34.22
2022-08-10T03:09:10.097Z,34.44
2022-08-10T03:12:34.811Z,34.42
2022-08-10T03:14:29.419Z,34.41
2022-08-10T03:16:58.880Z,34.29
2022-08-10T03:20:33.545Z,33.90
2022-08-10T03:22:20.280Z,34.22
2022-08-10T03:24:49.720Z,34.15
2022-08-10T03:27:19.160Z,34.71
2022-08-10T03:30:28.234Z,34.71
2022-08-10T03:32:37.959Z,35.18
2022-08-10T03:35:10.841Z,35.40
2022-08-10T03:37:40.296Z,35.66
2022-08-10T03:40:11.140Z,35.96
2022-08-10T03:42:41.292Z,36.20
2022-08-10T03:45:11.006Z,36.34
2022-08-10T03:47:40.798Z,36.55
2022-08-10T03:50:45.749Z,36.93
2022-08-10T03:53:02.544Z,37.07
2022-08-10T03:56:28.743Z,37.24
2022-08-10T03:58:21.365Z,37.52
2022-08-10T04:00:51.633Z,37.92
2022-08-10T04:03:21.125Z,37.83
2022-08-10T04:05:53.152Z,37.67
2022-08-10T04:08:22.585Z,38.15
2022-08-10T04:10:52.205Z,38.26
2022-08-10T04:13:22.953Z,37.74
2022-08-10T04:15:52.367Z,37.74
2022-08-10T04:18:21.775Z,37.85
2022-08-10T04:20:56.043Z,37.66
2022-08-10T04:23:26.897Z,37.88
2022-08-10T04:25:56.319Z,37.54
2022-08-10T04:28:26.159Z,37.76
2022-08-10T04:30:55.865Z,37.93
2022-08-10T04:33:26.077Z,37.40
2022-08-10T04:35:58.090Z,36.91
2022-08-10T04:38:27.789Z,37.35
2022-08-10T04:40:57.220Z,37.84
2022-08-10T04:43:26.627Z,37.88
2022-08-10T04:45:56.061Z,38.32
2022-08-10T04:48:42.603Z,38.26
2022-08-10T04:51:19.783Z,38.11
2022-08-10T04:54:04.981Z,38.39
2022-08-10T04:56:37.800Z,37.85
2022-08-10T04:59:07.834Z,38.24
2022-08-10T05:02:13.452Z,38.40
2022-08-10T05:04:36.445Z,38.56
2022-08-10T05:07:16.773Z,39.17
2022-08-10T05:10:01.273Z,39.65
2022-08-10T05:12:36.531Z,40.15
2022-08-10T05:15:08.602Z,39.71
2022-08-10T05:17:38.216Z,40.43
2022-08-10T05:20:08.913Z,40.64
2022-08-10T05:22:41.965Z,40.43
2022-08-10T05:25:12.980Z,40.18
2022-08-10T05:27:42.243Z,40.06
2022-08-10T05:30:13.546Z,40.21
2022-08-10T05:32:56.870Z,40.01
2022-08-10T05:35:51.855Z,40.03
2022-08-10T05:38:21.359Z,39.54
2022-08-10T05:40:50.862Z,39.56
2022-08-10T05:43:20.958Z,39.02
2022-08-10T05:46:18.958Z,38.88
2022-08-10T05:48:55.869Z,39.08
2022-08-10T05:51:29.502Z,39.06
2022-08-10T05:54:06.773Z,38.65
2022-08-10T05:56:53.298Z,38.64
2022-08-10T06:00:10.978Z,38.67
2022-08-10T06:02:34.132Z,38.59
2022-08-10T06:05:10.001Z,38.62
2022-08-10T06:07:43.917Z,38.25
2022-08-10T06:10:31.242Z,37.96
2022-08-10T06:13:29.950Z,37.59
2022-08-10T06:16:03.895Z,37.12
2022-08-10T06:18:33.366Z,36.56
2022-08-10T06:21:03.252Z,36.50
2022-08-10T06:23:33.114Z,36.11
2022-08-10T06:26:11.712Z,35.38
2022-08-10T06:28:43.676Z,35.27
2022-08-10T06:31:30.764Z,34.82
2022-08-10T06:34:17.912Z,34.41
2022-08-10T06:36:47.382Z,33.66
2022-08-10T06:39:32.986Z,33.49
2022-08-10T06:42:16.822Z,32.84
2022-08-10T06:44:58.376Z,32.13
2022-08-10T06:47:29.623Z,31.38
2022-08-10T06:50:04.940Z,31.15
2022-08-10T06:52:38.933Z,30.58
2022-08-10T06:55:11.183Z,30.06
2022-08-10T06:57:43.356Z,30.40
2022-08-10T07:00:19.690Z,30.72
2022-08-10T07:02:51.842Z,30.84
2022-08-10T07:05:22.883Z,30.93
2022-08-10T07:07:53.315Z,30.34
2022-08-10T07:10:25.125Z,30.59
2022-08-10T07:13:13.064Z,30.56
2022-08-10T07:16:00.090Z,30.33
2022-08-10T07:18:30.176Z,29.63
2022-08-10T07:21:01.952Z,29.71
2022-08-10T07:23:57.975Z,28.97
2022-08-10T07:26:21.157Z,29.19
2022-08-10T07:28:53.937Z,29.81
2022-08-10T07:31:54.304Z,29.57
2022-08-10T07:34:13.841Z,30.01
2022-08-10T07:36:58.443Z,29.19
2022-08-10T07:39:57.843Z,29.29
2022-08-10T07:42:17.839Z,29.89
2022-08-10T07:44:50.563Z,28.38
2022-08-10T07:47:52.888Z,26.06
2022-08-10T07:50:14.842Z,26.81
2022-08-10T07:52:44.299Z,25.89
2022-08-10T07:55:14.462Z,25.95
2022-08-10T07:57:43.916Z,26.40
2022-08-10T08:00:17.056Z,26.39
2022-08-10T08:02:48.142Z,26.22
2022-08-10T08:05:51.863Z,25.93
2022-08-10T08:08:07.248Z,25.41
2022-08-10T08:10:36.675Z,25.32
2022-08-10T08:13:06.159Z,24.13
2022-08-10T08:16:17.455Z,23.44
2022-08-10T08:18:27.741Z,24.79
2022-08-10T08:20:58.225Z,24.60
2022-08-10T08:24:05.992Z,24.59
2022-08-10T08:26:17.072Z,24.56
2022-08-10T08:28:46.661Z,23.81
2022-08-10T08:31:19.324Z,22.75
2022-08-10T08:33:48.887Z,22.85
2022-08-10T08:36:19.381Z,22.84
2022-08-10T08:38:49.024Z,22.52
2022-08-10T08:41:29.049Z,22.15
2022-08-10T08:44:04.658Z,21.79
2022-08-10T08:46:58.795Z,20.65
2022-08-10T08:50:08.019Z,20.90
2022-08-10T08:52:46.978Z,20.46
2022-08-10T08:56:02.828Z,20.77
2022-08-10T08:58:23.558Z,20.49
2022-08-10T09:00:58.385Z,20.59
2022-08-10T09:03:49.383Z,20.05
2022-08-10T09:06:31.182Z,19.18
2022-08-10T09:09:22.703Z,19.15
2022-08-10T09:11:57.082Z,18.90
2022-08-10T09:14:28.435Z,18.99
2022-08-10T09:17:00.354Z,18.52
2022-08-10T09:19:37.246Z,19.03
2022-08-10T09:22:17.303Z,19.60
2022-08-10T09:24:49.568Z,19.92
2022-08-10T09:27:22.133Z,19.97
2022-08-10T09:29:56.427Z,20.82
2022-08-10T09:36:15.857Z,21.31
2022-08-10T09:36:28.349Z,20.68
2022-08-10T09:38:22.955Z,20.88
2022-08-10T09:40:59.526Z,19.76
2022-08-10T09:43:38.016Z,20.07
2022-08-10T09:46:12.127Z,19.59
2022-08-10T09:48:44.472Z,19.51
2022-08-10T09:51:44.272Z,19.54
2022-08-10T09:54:16.907Z,18.75
2022-08-10T09:56:50.725Z,18.99
2022-08-10T09:59:26.860Z,18.98
2022-08-10T10:02:24.668Z,18.14
2022-08-10T10:05:01.487Z,17.00
2022-08-10T10:07:33.518Z,14.86
2022-08-10T10:10:04.992Z,12.37
2022-08-10T10:12:39.172Z,10.85
2022-08-10T10:15:24.824Z,9.73
2022-08-10T10:18:24.980Z,8.54
2022-08-10T10:21:03.260Z,7.77
2022-08-10T10:24:05.370Z,7.71
2022-08-10T10:26:38.307Z,7.40
2022-08-10T10:29:37.401Z,7.06
2022-08-10T10:32:05.276Z,6.63
2022-08-10T10:34:38.312Z,7.68
2022-08-10T10:37:08.926Z,7.23
2022-08-10T10:39:42.696Z,8.27
2022-08-10T10:42:42.268Z,9.98
2022-08-10T10:45:11.644Z,11.37
2022-08-10T10:47:52.726Z,13.10
2022-08-10T10:50:24.701Z,14.47
2022-08-10T10:52:59.998Z,14.55
2022-08-10T10:56:13.603Z,15.61
2022-08-10T10:58:28.809Z,16.04
2022-08-10T11:01:01.382Z,16.07
2022-08-10T11:03:39.246Z,16.65
2022-08-10T11:06:13.079Z,16.40
2022-08-10T11:08:45.592Z,17.07
2022-08-10T11:12:01.310Z,17.19
2022-08-10T11:14:26.588Z,16.31
2022-08-10T11:17:02.654Z,17.32
2022-08-10T11:20:02.361Z,17.11
2022-08-10T11:22:30.730Z,18.46
2022-08-10T11:25:10.985Z,18.33
2022-08-10T11:27:48.923Z,18.33
2022-08-10T11:30:21.599Z,17.64
2022-08-10T11:33:01.222Z,17.78
2022-08-10T11:35:35.272Z,17.96
2022-08-10T11:38:32.957Z,18.02
2022-08-10T11:42:06.428Z,17.51
2022-08-10T11:44:06.575Z,18.52
2022-08-10T11:46:36.967Z,16.98
2022-08-10T11:49:09.868Z,18.07
2022-08-10T11:51:44.700Z,17.51
2022-08-10T11:54:19.676Z,17.74
2022-08-10T11:56:50.485Z,17.71
2022-08-10T11:59:37.347Z,18.41
2022-08-10T12:02:07.108Z,18.20
2022-08-10T12:04:36.775Z,18.63
2022-08-10T12:10:06.915Z,18.85
2022-08-10T12:10:10.529Z,19.47
2022-08-10T12:12:45.319Z,18.79
2022-08-10T12:15:19.628Z,18.77
2022-08-10T12:17:52.568Z,18.57
2022-08-10T12:20:27.792Z,19.28
2022-08-10T12:22:59.057Z,18.53
2022-08-10T12:25:55.565Z,18.06
2022-08-10T12:28:22.655Z,18.69
2022-08-10T12:31:14.813Z,19.11
2022-08-10T12:34:02.287Z,18.46
2022-08-10T12:36:36.511Z,18.75
2022-08-10T12:39:07.724Z,17.65
2022-08-10T12:41:43.878Z,17.80
2022-08-10T12:44:15.899Z,17.52
2022-08-10T12:46:52.556Z,18.44
2022-08-10T12:49:23.821Z,18.20
2022-08-10T12:51:55.945Z,18.28
2022-08-10T12:54:32.929Z,17.73
2022-08-10T12:57:03.496Z,18.21
2022-08-10T12:59:32.963Z,18.18
2022-08-10T13:02:16.854Z,18.84
2022-08-10T13:04:46.318Z,18.45
2022-08-10T13:08:25.880Z,18.30
2022-08-10T13:10:05.358Z,18.34
2022-08-10T13:12:40.392Z,17.99
2022-08-10T13:15:45.533Z,17.66
2022-08-10T13:18:06.674Z,18.37
2022-08-10T13:20:48.959Z,17.92
2022-08-10T13:23:20.351Z,17.94
2022-08-10T13:25:50.709Z,17.46
2022-08-10T13:28:35.964Z,16.95
2022-08-10T13:31:06.576Z,18.06
2022-08-10T13:34:39.449Z,18.41
2022-08-10T13:36:30.220Z,17.86
2022-08-10T13:38:59.909Z,17.87
2022-08-10T13:41:30.616Z,17.80
2022-08-10T13:44:01.501Z,17.06
2022-08-10T13:46:31.005Z,16.26
2022-08-10T13:49:03.126Z,16.27
2022-08-10T13:51:57.540Z,16.29
2022-08-10T13:54:22.000Z,16.59
2022-08-10T13:56:51.801Z,17.06
2022-08-10T13:59:21.421Z,17.37
2022-08-10T14:01:52.181Z,17.75
2022-08-10T14:04:24.284Z,17.52
2022-08-10T14:06:55.940Z,16.87
2022-08-10T14:09:31.550Z,16.26
2022-08-10T14:12:01.019Z,17.26
2022-08-10T14:14:30.856Z,16.57
2022-08-10T14:17:00.269Z,17.76
2022-08-10T14:19:33.735Z,17.15
2022-08-10T14:22:06.226Z,16.89
2022-08-10T14:24:35.775Z,17.12
2022-08-10T14:27:07.503Z,17.09
2022-08-10T14:29:44.205Z,17.49
2022-08-10T14:32:14.203Z,16.46
2022-08-10T14:36:22.309Z,17.18
2022-08-10T14:37:38.249Z,17.49
2022-08-10T14:40:09.236Z,17.67
2022-08-10T14:42:40.128Z,16.77
2022-08-10T14:45:21.303Z,17.58
2022-08-10T14:47:53.567Z,17.58
2022-08-10T14:50:33.695Z,17.84
2022-08-10T14:53:03.484Z,18.20
2022-08-10T14:55:58.304Z,18.28
2022-08-10T14:58:24.137Z,18.08
2022-08-10T15:00:53.704Z,17.92
2022-08-10T15:04:00.791Z,18.73
2022-08-10T15:06:18.049Z,19.14
2022-08-10T15:08:48.089Z,19.38
2022-08-10T15:12:14.886Z,18.85
2022-08-10T15:14:29.349Z,18.40
2022-08-10T15:16:57.742Z,18.52
2022-08-10T15:20:01.075Z,17.76
2022-08-10T15:22:37.044Z,17.71
2022-08-10T15:25:18.207Z,17.83
2022-08-10T15:27:54.786Z,18.16
2022-08-10T15:30:29.633Z,18.26
2022-08-10T15:33:12.015Z,18.44
2022-08-10T15:35:54.896Z,18.23
2022-08-10T15:38:34.905Z,17.89
2022-08-10T15:41:09.437Z,18.08
2022-08-10T15:43:44.761Z,18.87
2022-08-10T15:46:17.315Z,18.51
2022-08-10T15:48:48.004Z,18.79
2022-08-10T15:51:27.955Z,18.58
2022-08-10T15:54:03.902Z,18.12
2022-08-10T15:56:35.519Z,18.37
2022-08-10T15:59:08.473Z,17.86
2022-08-10T16:02:14.446Z,17.96
2022-08-10T16:04:32.697Z,18.02
2022-08-10T16:07:06.446Z,18.11
2022-08-10T16:10:23.380Z,18.14
2022-08-10T16:12:35.173Z,18.45
2022-08-10T16:15:08.925Z,17.47
2022-08-10T16:17:55.505Z,17.40
2022-08-10T16:20:31.211Z,17.44
2022-08-10T16:23:03.481Z,18.01
2022-08-10T16:25:48.552Z,17.80
2022-08-10T16:28:24.115Z,18.12
2022-08-10T16:30:56.008Z,17.96
2022-08-10T16:33:52.523Z,17.89
2022-08-10T16:36:18.538Z,16.90
2022-08-10T16:38:49.652Z,16.32
2022-08-10T16:42:03.063Z,17.34
2022-08-10T16:44:13.193Z,17.30
2022-08-10T16:46:44.756Z,17.32
2022-08-10T16:49:14.647Z,17.23
2022-08-10T16:51:44.089Z,17.36
2022-08-10T16:54:13.520Z,17.73
2022-08-10T16:56:49.301Z,17.25
2022-08-10T16:59:21.032Z,17.81
2022-08-10T17:01:54.613Z,18.16
2022-08-10T17:04:24.180Z,17.82
2022-08-10T17:06:56.620Z,17.79
2022-08-10T17:09:31.883Z,17.79
2022-08-10T17:12:10.502Z,17.97
2022-08-10T17:14:40.694Z,17.71
2022-08-10T17:17:11.944Z,17.53
2022-08-10T17:19:43.530Z,17.70
2022-08-10T17:22:14.461Z,17.86
2022-08-10T17:24:47.200Z,17.17
2022-08-10T17:28:04.050Z,17.70
2022-08-10T17:30:15.871Z,17.72
2022-08-10T17:32:59.357Z,17.82
2022-08-10T17:35:31.103Z,17.90
2022-08-10T17:38:03.411Z,17.89
2022-08-10T17:40:33.311Z,17.43
2022-08-10T17:43:05.370Z,17.58
2022-08-10T17:45:47.576Z,17.43
2022-08-10T17:48:19.022Z,17.66
2022-08-10T17:50:51.628Z,17.81
2022-08-10T17:53:23.207Z,17.76
2022-08-10T17:55:59.737Z,17.68
2022-08-10T17:58:31.812Z,17.59
2022-08-10T18:01:38.746Z,18.02
2022-08-10T18:03:54.321Z,17.71
2022-08-10T18:06:23.871Z,17.79
2022-08-10T18:08:55.545Z,18.00
2022-08-10T18:11:26.256Z,18.28
2022-08-10T18:14:05.634Z,18.53
2022-08-10T18:16:38.907Z,18.58
2022-08-10T18:19:13.968Z,18.60
2022-08-10T18:21:44.240Z,18.50
2022-08-10T18:24:18.200Z,18.53
2022-08-10T18:26:49.159Z,18.66
2022-08-10T18:29:23.900Z,18.66
2022-08-10T18:31:58.147Z,18.95
2022-08-10T18:34:27.839Z,19.07
2022-08-10T18:36:57.310Z,18.79
2022-08-10T18:39:30.099Z,19.09
2022-08-10T18:42:05.649Z,19.23
2022-08-10T18:44:39.620Z,19.14
2022-08-10T18:47:11.964Z,19.01
2022-08-10T18:49:44.104Z,19.13
2022-08-10T18:52:15.026Z,19.05
2022-08-10T18:54:46.702Z,19.47
2022-08-10T18:57:27.113Z,19.54
2022-08-10T19:00:09.511Z,19.23
2022-08-10T19:02:53.168Z,19.43
2022-08-10T19:05:32.142Z,20.07
2022-08-10T19:08:30.889Z,20.68
2022-08-10T19:11:04.825Z,20.37
2022-08-10T19:13:36.386Z,20.85
2022-08-10T19:16:15.092Z,20.78
2022-08-10T19:18:46.772Z,20.59
2022-08-10T19:21:17.162Z,20.65
2022-08-10T19:23:52.158Z,20.63
2022-08-10T19:26:41.684Z,20.74
2022-08-10T19:30:10.035Z,21.04
2022-08-10T19:32:26.790Z,20.79
2022-08-10T19:35:03.695Z,20.96
2022-08-10T19:37:37.467Z,21.30
2022-08-10T19:40:21.666Z,20.70
2022-08-10T19:43:10.722Z,21.00
2022-08-10T19:45:56.152Z,21.05
2022-08-10T19:48:38.572Z,20.93
2022-08-10T19:51:11.265Z,21.15
2022-08-10T19:53:44.481Z,21.52
2022-08-10T19:56:33.635Z,21.33
2022-08-10T19:59:06.740Z,22.33
2022-08-10T20:01:55.444Z,21.99
2022-08-10T20:04:31.905Z,22.79
2022-08-10T20:07:11.982Z,22.30
2022-08-10T20:09:45.111Z,22.03
2022-08-10T20:12:19.070Z,22.38
2022-08-10T20:14:50.673Z,22.66
2022-08-10T20:17:26.291Z,22.32
2022-08-10T20:20:01.343Z,22.49
2022-08-10T20:22:32.520Z,23.03
2022-08-10T20:25:06.699Z,23.04
2022-08-10T20:28:00.123Z,23.36
2022-08-10T20:30:29.883Z,23.08
2022-08-10T20:33:00.400Z,23.52
2022-08-10T20:35:35.200Z,23.29
2022-08-10T20:38:11.502Z,23.18
2022-08-10T20:40:44.247Z,23.25
2022-08-10T20:43:19.161Z,23.07
2022-08-10T20:46:07.529Z,23.24
2022-08-10T20:48:39.213Z,23.00
2022-08-10T20:51:17.444Z,23.29
2022-08-10T20:53:47.701Z,23.44
2022-08-10T20:56:19.904Z,23.61
2022-08-10T20:59:05.472Z,23.47
2022-08-10T21:02:06.092Z,23.45
2022-08-10T21:04:45.919Z,23.52
2022-08-10T21:08:00.670Z,23.65
2022-08-10T21:10:24.624Z,24.10
2022-08-10T21:13:00.865Z,23.70
2022-08-10T21:15:41.812Z,23.66
2022-08-10T21:18:22.411Z,24.06
2022-08-10T21:20:59.411Z,24.23
2022-08-10T21:23:32.233Z,23.92
2022-08-10T21:26:10.022Z,24.49
2022-08-10T21:28:44.766Z,24.58
2022-08-10T21:31:25.144Z,24.65
2022-08-10T21:34:01.849Z,24.60
2022-08-10T21:36:32.114Z,24.58
2022-08-10T21:39:09.969Z,24.87
2022-08-10T21:41:58.821Z,24.83
2022-08-10T21:44:49.959Z,24.95
2022-08-10T21:47:43.500Z,24.99
2022-08-10T21:50:39.588Z,25.37
2022-08-10T21:53:43.584Z,25.51
2022-08-10T21:56:33.735Z,25.94
2022-08-10T21:59:17.140Z,26.32
2022-08-10T22:02:01.988Z,25.70
2022-08-10T22:04:46.105Z,26.12
2022-08-10T22:07:28.052Z,25.60
2022-08-10T22:10:10.303Z,26.09
2022-08-10T22:12:56.299Z,26.06
2022-08-10T22:16:05.536Z,25.88
2022-08-10T22:18:53.685Z,26.51
2022-08-10T22:21:50.986Z,27.12
2022-08-10T22:24:37.353Z,27.87
2022-08-10T22:27:47.669Z,28.37
2022-08-10T22:30:34.646Z,27.89
2022-08-10T22:33:25.784Z,27.81
2022-08-10T22:36:11.962Z,28.25
2022-08-10T22:39:08.235Z,27.83
2022-08-10T22:41:57.395Z,27.75
2022-08-10T22:44:39.406Z,28.04
2022-08-10T22:47:23.961Z,28.08
2022-08-10T22:49:51.232Z,28.00
2022-08-10T22:52:22.603Z,28.15
2022-08-10T22:55:06.813Z,27.75
2022-08-10T22:57:48.768Z,28.16
2022-08-10T23:00:19.988Z,28.21
2022-08-10T23:03:07.717Z,28.21
2022-08-10T23:05:38.082Z,28.50
2022-08-10T23:08:12.484Z,28.21
2022-08-10T23:10:59.580Z,27.91
2022-08-10T23:13:36.481Z,27.82
2022-08-10T23:16:19.840Z,27.80
2022-08-10T23:19:06.040Z,28.10
2022-08-10T23:22:02.868Z,28.12
2022-08-10T23:24:30.204Z,28.62
2022-08-10T23:27:00.148Z,28.53
2022-08-10T23:29:44.705Z,29.00
2022-08-10T23:32:32.350Z,29.05
2022-08-10T23:36:30.596Z,28.62
2022-08-10T23:37:58.288Z,28.86
2022-08-10T23:40:27.732Z,28.75
2022-08-10T23:42:57.181Z,28.95
2022-08-10T23:45:28.935Z,28.92
2022-08-10T23:48:20.011Z,29.20
2022-08-10T23:50:59.496Z,28.97
2022-08-10T23:53:30.912Z,28.97
2022-08-10T23:56:06.823Z,29.26
2022-08-10T23:58:39.304Z,29.42
